Time;durP1;ratioP1;P1;durP2;ratioP2;P2;SDS_P1;SDS_P2;PMS_P1;PMS_P2;Temp;Humidity;BMP_temperature;BMP_pressure;BME280_temperature;BME280_humidity;BME280_pressure;Samples;Min_cycle;Max_cycle;Signal;HPM_P1;HPM_P2
2021/03/14 00:01:05;;;;;;;3.05;2.50;;;;;;;7.97;54.48;97230.80;1715552;83;21596;-75
2021/03/14 00:03:33;;;;;;;3.22;2.55;;;;;;;7.98;54.55;97218.27;1715614;83;21024;-74
2021/03/14 00:06:01;;;;;;;2.87;2.42;;;;;;;7.96;54.49;97223.27;1716436;83;22246;-74
2021/03/14 00:08:31;;;;;;;2.55;2.27;;;;;;;7.98;54.68;97218.27;1716077;83;20953;-74
2021/03/14 00:11:04;;;;;;;4.00;3.25;;;;;;;7.97;54.44;97232.13;1715678;83;20960;-74
2021/03/14 00:13:38;;;;;;;2.80;2.50;;;;;;;7.96;54.65;97227.73;1715994;83;21066;-76
2021/03/14 00:16:08;;;;;;;2.95;2.60;;;;;;;7.96;54.69;97217.05;1715954;83;20956;-75
2021/03/14 00:18:40;;;;;;;3.12;2.30;;;;;;;7.94;54.89;97219.84;1715787;83;21328;-74
2021/03/14 00:21:09;;;;;;;4.50;2.67;;;;;;;7.94;54.76;97213.16;1716045;83;20957;-72
2021/03/14 00:23:38;;;;;;;4.08;2.30;;;;;;;7.92;54.85;97198.22;1715866;83;21000;-74
2021/03/14 00:26:06;;;;;;;2.58;2.37;;;;;;;7.93;54.76;97202.11;1715377;83;21583;-74
2021/03/14 00:28:36;;;;;;;2.20;2.00;;;;;;;7.92;54.70;97183.02;1678834;84;21554;-74
2021/03/14 00:31:03;;;;;;;4.70;2.52;;;;;;;7.91;54.61;97189.33;1702267;84;21819;-73
2021/03/14 00:33:32;;;;;;;4.00;2.70;;;;;;;7.91;54.64;97168.44;1702145;84;20980;-74
2021/03/14 00:36:01;;;;;;;4.22;2.22;;;;;;;7.88;54.59;97173.55;1697988;83;20929;-74
2021/03/14 00:38:28;;;;;;;2.37;2.17;;;;;;;7.87;54.36;97154.47;1688826;85;20932;-74
2021/03/14 00:40:56;;;;;;;2.72;2.12;;;;;;;7.85;54.55;97161.77;1704679;83;20953;-74
2021/03/14 00:43:25;;;;;;;2.67;2.40;;;;;;;7.84;54.28;97165.40;1704534;83;21829;-74
2021/03/14 00:45:53;;;;;;;2.45;2.25;;;;;;;7.82;54.34;97163.80;1704269;83;21374;-74
2021/03/14 00:48:25;;;;;;;3.15;2.77;;;;;;;7.78;54.26;97167.20;1703350;84;21022;-75
2021/03/14 00:50:52;;;;;;;2.30;2.10;;;;;;;7.77;53.93;97162.82;1704476;83;21512;-75
2021/03/14 00:53:22;;;;;;;3.12;2.70;;;;;;;7.75;53.68;97156.75;1703926;84;20969;-74
2021/03/14 00:55:52;;;;;;;2.92;2.62;;;;;;;7.75;53.56;97144.72;1704836;83;21384;-74
2021/03/14 00:58:20;;;;;;;3.75;2.87;;;;;;;7.75;53.40;97144.23;1704818;83;21394;-75
2021/03/14 01:00:47;;;;;;;2.22;2.02;;;;;;;7.76;53.46;97136.59;1684287;84;21012;-74
2021/03/14 01:03:16;;;;;;;2.30;2.10;;;;;;;7.74;53.18;97129.19;1704349;83;21453;-75
2021/03/14 01:05:44;;;;;;;2.85;2.65;;;;;;;7.71;53.16;97133.89;1704212;84;21060;-75
2021/03/14 01:08:17;;;;;;;3.00;2.77;;;;;;;7.69;53.23;97127.83;1704243;84;21373;-73
2021/03/14 01:10:46;;;;;;;3.27;2.47;;;;;;;7.66;52.82;97112.03;1704614;83;21000;-73
2021/03/14 01:13:17;;;;;;;2.83;2.47;;;;;;;7.64;52.92;97111.31;1704633;83;21450;-75
2021/03/14 01:15:44;;;;;;;3.42;3.15;;;;;;;7.63;52.85;97109.59;1704112;84;21016;-75
2021/03/14 01:18:14;;;;;;;3.55;3.25;;;;;;;7.59;52.78;97100.48;1704128;83;21470;-75
2021/03/14 01:20:42;;;;;;;3.60;3.30;;;;;;;7.60;52.64;97115.55;1704305;83;21647;-75
2021/03/14 01:23:09;;;;;;;4.83;3.42;;;;;;;7.58;52.82;97120.18;1704451;83;21394;-75
2021/03/14 01:25:38;;;;;;;3.62;3.40;;;;;;;7.59;53.18;97134.38;1704229;83;21016;-75
2021/03/14 01:28:07;;;;;;;4.67;4.08;;;;;;;7.58;53.77;97125.98;1684563;84;20989;-75
2021/03/14 01:30:34;;;;;;;5.28;4.87;;;;;;;7.57;53.88;97126.48;1704524;83;20988;-75
2021/03/14 01:33:06;;;;;;;4.42;4.08;;;;;;;7.56;54.39;97128.78;1704578;83;21531;-74
2021/03/14 01:35:33;;;;;;;4.55;4.15;;;;;;;7.55;54.68;97127.56;1703359;82;21602;-74
2021/03/14 01:38:01;;;;;;;5.55;5.10;;;;;;;7.56;54.94;97100.72;1698367;84;20969;-74
2021/03/14 01:40:29;;;;;;;5.42;5.03;;;;;;;7.58;55.13;97110.83;1698688;84;20957;-74
2021/03/14 01:42:57;;;;;;;5.33;4.87;;;;;;;7.59;55.29;97099.64;1698290;84;21439;-74
2021/03/14 01:45:25;;;;;;;5.97;5.40;;;;;;;7.59;55.11;97111.17;1698824;83;21276;-75
2021/03/14 01:47:55;;;;;;;7.25;5.62;;;;;;;7.59;55.12;97104.49;1698478;84;21065;-75
2021/03/14 01:50:26;;;;;;;4.55;4.20;;;;;;;7.58;55.15;97097.47;1698474;84;21052;-75
2021/03/14 01:52:55;;;;;;;5.00;4.60;;;;;;;7.58;55.18;97110.83;1698788;83;21048;-74
2021/03/14 01:55:24;;;;;;;3.90;3.60;;;;;;;7.58;55.21;97108.16;1698411;84;21473;-77
2021/03/14 01:57:54;;;;;;;5.80;3.70;;;;;;;7.55;55.33;97108.39;1698450;84;22339;-75
2021/03/14 02:00:27;;;;;;;4.62;4.22;;;;;;;7.51;55.34;97105.58;1680978;84;20964;-75
2021/03/14 02:02:56;;;;;;;5.30;3.92;;;;;;;7.50;55.44;97114.55;1698401;84;21028;-75
2021/03/14 02:05:24;;;;;;;4.30;3.90;;;;;;;7.50;55.76;97105.20;1698632;84;21068;-75
2021/03/14 02:07:53;;;;;;;4.17;3.83;;;;;;;7.50;55.82;97115.05;1698652;84;20945;-75
2021/03/14 02:10:26;;;;;;;4.47;3.67;;;;;;;7.49;56.52;97120.02;1698665;84;21462;-74
2021/03/14 02:13:19;;;;;;;4.37;4.08;;;;;;;7.50;56.60;97129.25;1698220;84;21083;-75
2021/03/14 02:16:00;;;;;;;4.97;3.35;;;;;;;7.52;56.45;97134.48;1687195;84;20913;-74
2021/03/14 02:18:29;;;;;;;4.05;3.58;;;;;;;7.50;56.52;97123.06;1692068;84;21507;-74
2021/03/14 02:20:58;;;;;;;3.30;3.05;;;;;;;7.49;56.68;97114.20;1674592;84;21009;-75
2021/03/14 02:23:48;;;;;;;4.00;3.70;;;;;;;7.50;56.59;97127.07;1692056;84;21451;-75
2021/03/14 02:26:25;;;;;;;4.75;4.25;;;;;;;7.49;56.70;97128.91;1692059;84;21589;-75
2021/03/14 02:28:54;;;;;;;4.50;4.10;;;;;;;7.46;57.31;97104.22;1692143;84;20965;-75
2021/03/14 02:31:24;;;;;;;3.92;3.62;;;;;;;7.47;57.52;97117.95;1674816;84;21056;-73
2021/03/14 02:34:04;;;;;;;4.37;4.03;;;;;;;7.47;57.59;97114.79;1692094;84;20946;-75
2021/03/14 02:36:33;;;;;;;4.55;4.15;;;;;;;7.49;57.60;97135.58;1697218;84;22096;-74
2021/03/14 02:39:00;;;;;;;4.37;3.27;;;;;;;7.50;57.59;97133.25;1704244;84;20957;-75
2021/03/14 02:41:29;;;;;;;4.05;3.75;;;;;;;7.51;57.61;97142.98;1704436;82;20929;-74
2021/03/14 02:43:59;;;;;;;4.47;3.40;;;;;;;7.50;57.54;97143.94;1704655;83;21366;-75
2021/03/14 02:46:28;;;;;;;4.30;4.00;;;;;;;7.50;57.61;97137.27;1704907;83;21060;-75
2021/03/14 02:48:57;;;;;;;4.53;4.22;;;;;;;7.50;57.66;97139.94;1704361;83;21215;-74
2021/03/14 02:51:26;;;;;;;4.45;4.05;;;;;;;7.51;57.78;97144.32;1704645;83;21036;-74
2021/03/14 02:53:53;;;;;;;4.90;4.50;;;;;;;7.50;57.88;97143.94;1700947;83;21063;-75
2021/03/14 02:56:21;;;;;;;5.40;4.90;;;;;;;7.52;57.76;97152.72;1687851;84;20892;-74
2021/03/14 02:58:51;;;;;;;4.92;4.53;;;;;;;7.52;57.84;97144.70;1701498;84;20910;-75
2021/03/14 03:01:19;;;;;;;4.80;4.40;;;;;;;7.51;58.14;97134.97;1698886;83;21884;-74
2021/03/14 03:03:47;;;;;;;4.15;3.83;;;;;;;7.49;58.23;97146.27;1698725;84;21001;-74
2021/03/14 03:06:17;;;;;;;4.92;4.42;;;;;;;7.49;58.48;97143.59;1698843;84;21024;-74
2021/03/14 03:08:44;;;;;;;4.80;4.40;;;;;;;7.47;58.43;97138.84;1699564;84;21029;-73
2021/03/14 03:11:14;;;;;;;4.03;3.67;;;;;;;7.45;58.75;97138.11;1699527;83;20957;-73
2021/03/14 03:13:42;;;;;;;5.28;4.83;;;;;;;7.45;58.82;97143.95;1698833;84;21375;-74
2021/03/14 03:16:17;;;;;;;4.78;4.37;;;;;;;7.46;58.81;97142.95;1699656;84;20997;-74
2021/03/14 03:18:46;;;;;;;4.58;4.17;;;;;;;7.45;58.75;97146.12;1699397;84;21005;-74
2021/03/14 03:21:14;;;;;;;6.12;4.97;;;;;;;7.49;58.49;97150.28;1698948;83;21568;-75
2021/03/14 03:23:41;;;;;;;5.40;5.00;;;;;;;7.54;58.67;97162.79;1699866;83;21391;-74
2021/03/14 03:26:11;;;;;;;5.05;4.60;;;;;;;7.57;58.51;97159.88;1699411;84;21401;-74
2021/03/14 03:28:40;;;;;;;5.55;5.12;;;;;;;7.60;58.63;97150.80;1698770;84;21506;-74
2021/03/14 03:31:07;;;;;;;4.90;4.45;;;;;;;7.60;58.55;97152.97;1698831;84;21028;-75
2021/03/14 03:33:37;;;;;;;8.68;4.58;;;;;;;7.62;58.77;97139.98;1698712;83;21021;-75
2021/03/14 03:36:05;;;;;;;5.85;4.45;;;;;;;7.61;58.69;97139.11;1698505;83;21462;-75
2021/03/14 03:38:35;;;;;;;5.53;4.83;;;;;;;7.64;58.38;97144.72;1696653;84;21403;-75
2021/03/14 03:41:04;;;;;;;5.75;5.25;;;;;;;7.66;58.03;97140.09;1696478;84;21589;-75
2021/03/14 03:43:35;;;;;;;7.20;5.40;;;;;;;7.70;58.28;97141.07;1676341;84;20965;-75
2021/03/14 03:46:08;;;;;;;6.10;4.90;;;;;;;7.72;57.93;97163.17;1696494;84;20951;-75
2021/03/14 03:48:48;;;;;;;5.60;5.03;;;;;;;7.76;57.80;97165.15;1696457;84;20989;-74
2021/03/14 03:51:19;;;;;;;5.67;4.72;;;;;;;7.80;57.97;97165.75;1696655;84;22284;-75
2021/03/14 03:53:48;;;;;;;5.83;5.33;;;;;;;7.81;57.77;97169.64;1696579;84;21020;-75
2021/03/14 03:56:15;;;;;;;6.90;5.60;;;;;;;7.83;57.77;97162.34;1676696;84;20958;-75
2021/03/14 03:58:44;;;;;;;4.50;4.10;;;;;;;7.85;57.68;97167.11;1696475;84;20993;-75
2021/03/14 04:01:12;;;;;;;6.40;5.75;;;;;;;7.86;57.60;97174.14;1696607;84;21391;-75
2021/03/14 04:03:44;;;;;;;6.65;6.00;;;;;;;7.85;57.60;97176.47;1696509;84;21373;-75
2021/03/14 04:06:15;;;;;;;6.30;5.80;;;;;;;7.84;57.68;97180.09;1696478;84;20965;-76
2021/03/14 04:08:45;;;;;;;7.33;5.53;;;;;;;7.82;57.71;97186.06;1696469;84;21004;-76
2021/03/14 04:11:16;;;;;;;9.35;6.47;;;;;;;7.80;57.97;97181.30;1696531;84;21481;-76
2021/03/14 04:13:44;;;;;;;7.08;6.47;;;;;;;7.76;57.99;97187.87;1696612;84;21044;-75
2021/03/14 04:16:12;;;;;;;5.85;5.15;;;;;;;7.73;58.13;97188.11;1696509;84;21367;-75
2021/03/14 04:18:42;;;;;;;6.08;5.47;;;;;;;7.69;58.09;97191.97;1696509;84;21061;-76
2021/03/14 04:21:16;;;;;;;5.60;5.10;;;;;;;7.65;58.07;97183.84;1696525;83;20906;-75
2021/03/14 04:23:51;;;;;;;6.47;5.87;;;;;;;7.62;58.24;97194.77;1696481;84;20986;-76
2021/03/14 04:26:20;;;;;;;5.50;5.00;;;;;;;7.58;58.26;97192.33;1696575;84;20997;-75
2021/03/14 04:28:52;;;;;;;5.72;5.22;;;;;;;7.57;58.40;97193.78;1696523;84;21378;-75
2021/03/14 04:31:20;;;;;;;5.37;4.87;;;;;;;7.55;58.56;97187.67;1696487;84;20949;-75
2021/03/14 04:33:47;;;;;;;6.78;5.50;;;;;;;7.53;58.61;97181.11;1696484;84;21036;-75
2021/03/14 04:36:16;;;;;;;5.58;4.97;;;;;;;7.53;58.69;97181.11;1696439;84;21006;-76
2021/03/14 04:38:44;;;;;;;5.30;4.90;;;;;;;7.49;58.92;97176.99;1696407;83;21053;-75
2021/03/14 04:41:12;;;;;;;5.58;5.12;;;;;;;7.47;58.83;97170.89;1696521;84;22276;-75
2021/03/14 04:43:41;;;;;;;7.78;5.40;;;;;;;7.46;58.96;97182.57;1676959;84;20950;-75
2021/03/14 04:46:13;;;;;;;6.35;5.75;;;;;;;7.43;59.09;97186.81;1696481;84;20945;-75
2021/03/14 04:48:41;;;;;;;6.20;5.10;;;;;;;7.40;59.21;97185.21;1696397;84;20949;-75
2021/03/14 04:51:11;;;;;;;6.05;5.40;;;;;;;7.38;59.74;97186.31;1694907;84;21369;-75
2021/03/14 04:53:39;;;;;;;6.33;5.72;;;;;;;7.36;59.67;97188.23;1696603;83;22289;-75
2021/03/14 04:56:07;;;;;;;7.80;6.42;;;;;;;7.36;59.82;97181.55;1696361;84;21029;-77
2021/03/14 04:58:36;;;;;;;7.65;6.80;;;;;;;7.35;60.23;97187.39;1696481;84;21580;-76
2021/03/14 05:01:04;;;;;;;5.80;5.12;;;;;;;7.36;60.55;97188.23;1676998;84;21505;-77
2021/03/14 05:03:35;;;;;;;6.40;5.80;;;;;;;7.37;60.92;97192.12;1678024;84;21025;-76
2021/03/14 05:06:03;;;;;;;5.28;4.78;;;;;;;7.38;61.67;97184.48;1695005;84;21867;-75
2021/03/14 05:08:32;;;;;;;4.50;4.08;;;;;;;7.41;62.12;97186.09;1676844;84;20974;-75
2021/03/14 05:11:02;;;;;;;4.65;4.12;;;;;;;7.46;62.32;97185.24;1696573;84;20945;-75
2021/03/14 05:13:32;;;;;;;3.75;3.45;;;;;;;7.54;62.44;97185.50;1696411;84;20954;-76
2021/03/14 05:16:00;;;;;;;3.42;3.12;;;;;;;7.60;62.43;97174.84;1696415;84;20914;-75
2021/03/14 05:18:29;;;;;;;3.83;3.22;;;;;;;7.66;62.06;97173.50;1696503;84;22260;-75
2021/03/14 05:20:57;;;;;;;4.05;3.67;;;;;;;7.69;61.51;97175.94;1696389;84;21005;-75
2021/03/14 05:23:27;;;;;;;3.90;3.02;;;;;;;7.74;61.36;97179.09;1696587;84;21445;-75
2021/03/14 05:25:55;;;;;;;4.65;3.50;;;;;;;7.77;61.24;97170.84;1696473;84;21546;-76
2021/03/14 05:28:24;;;;;;;3.05;2.70;;;;;;;7.81;61.23;97173.66;1696418;84;20949;-76
2021/03/14 05:30:54;;;;;;;3.40;3.08;;;;;;;7.83;61.44;97179.72;1696490;84;21785;-76
2021/03/14 05:33:22;;;;;;;3.20;2.95;;;;;;;7.84;61.59;97183.27;1676712;84;20966;-76
2021/03/14 05:35:50;;;;;;;3.17;2.92;;;;;;;7.84;61.90;97179.26;1696528;84;21392;-76
2021/03/14 05:38:20;;;;;;;2.58;2.37;;;;;;;7.84;61.98;97174.75;1696326;83;20996;-76
2021/03/14 05:40:49;;;;;;;2.67;2.47;;;;;;;7.84;62.43;97177.92;1696493;84;21482;-76
2021/03/14 05:43:16;;;;;;;3.05;2.58;;;;;;;7.83;62.39;97175.71;1696405;84;21154;-76
2021/03/14 05:45:44;;;;;;;2.70;2.50;;;;;;;7.81;62.90;97177.66;1696363;84;21064;-77
2021/03/14 05:48:12;;;;;;;2.90;2.42;;;;;;;7.80;63.19;97168.42;1696587;84;21378;-76
2021/03/14 05:50:40;;;;;;;1.90;1.70;;;;;;;7.75;63.45;97162.94;1696265;84;21036;-77
2021/03/14 05:53:08;;;;;;;1.82;1.65;;;;;;;7.74;63.32;97166.61;1696462;84;20985;-76
2021/03/14 05:55:40;;;;;;;2.92;1.82;;;;;;;7.73;63.25;97168.06;1655253;84;22461;-76
2021/03/14 05:58:08;;;;;;;2.50;2.30;;;;;;;7.69;63.25;97162.58;1696478;84;21597;-76
2021/03/14 06:00:35;;;;;;;3.12;2.70;;;;;;;7.66;63.20;97159.64;1654163;84;21017;-77
2021/03/14 06:03:03;;;;;;;2.62;2.35;;;;;;;7.67;63.07;97163.19;1696397;84;20966;-77
2021/03/14 06:05:31;;;;;;;2.35;2.10;;;;;;;7.66;63.06;97150.78;1696470;84;20937;-76
2021/03/14 06:07:59;;;;;;;2.25;2.08;;;;;;;7.69;63.01;97161.23;1696517;84;21250;-76
2021/03/14 06:10:31;;;;;;;2.60;2.40;;;;;;;7.66;62.93;97156.13;1696883;84;21454;-75
2021/03/14 06:12:59;;;;;;;2.77;2.58;;;;;;;7.66;62.94;97159.64;1697339;84;21008;-76
2021/03/14 06:15:27;;;;;;;4.15;3.22;;;;;;;7.66;63.08;97162.81;1696622;84;20953;-77
2021/03/14 06:17:55;;;;;;;4.05;3.65;;;;;;;7.65;63.20;97164.64;1696962;84;20982;-76
2021/03/14 06:20:45;;;;;;;4.45;3.90;;;;;;;7.66;63.10;97174.34;1690683;84;21216;-76
2021/03/14 06:23:13;;;;;;;4.72;4.10;;;;;;;7.66;63.18;97169.49;1695700;84;20977;-77
2021/03/14 06:25:45;;;;;;;4.55;4.10;;;;;;;7.66;63.32;97176.17;1697081;84;21394;-76
2021/03/14 06:28:14;;;;;;;4.47;3.85;;;;;;;7.67;63.40;97168.03;1697409;84;20953;-77
2021/03/14 06:30:44;;;;;;;3.90;3.60;;;;;;;7.70;63.28;97166.95;1696471;84;21040;-76
2021/03/14 06:33:16;;;;;;;4.10;3.70;;;;;;;7.69;63.13;97163.91;1696543;84;22601;-76
2021/03/14 06:35:51;;;;;;;4.33;3.90;;;;;;;7.70;63.12;97141.07;1696480;84;21029;-79
2021/03/14 06:38:25;;;;;;;3.40;3.10;;;;;;;7.71;63.21;97136.56;1697843;84;21486;-78
2021/03/14 06:41:11;;;;;;;3.30;3.00;;;;;;;7.74;63.03;97141.67;1698609;84;20934;-76
2021/03/14 06:43:56;;;;;;;3.85;3.52;;;;;;;7.74;63.04;97140.34;1698738;84;20898;-77
2021/03/14 06:46:31;;;;;;;3.98;3.37;;;;;;;7.77;63.08;97144.11;1698765;84;22079;-78
2021/03/14 06:49:12;;;;;;;3.83;3.42;;;;;;;7.79;63.13;97139.52;1698433;84;21012;-75
2021/03/14 06:51:56;;;;;;;3.58;3.27;;;;;;;7.80;63.06;97133.18;1690436;84;21498;-78
2021/03/14 06:54:39;;;;;;;3.35;2.80;;;;;;;7.81;63.10;97130.88;1694305;84;20937;-77
2021/03/14 06:57:20;;;;;;;4.28;3.87;;;;;;;7.81;62.93;97138.91;1695441;84;20997;-74
2021/03/14 06:59:51;;;;;;;3.58;3.27;;;;;;;7.81;62.79;97151.43;1699581;84;21219;-76
2021/03/14 07:02:22;;;;;;;3.80;3.22;;;;;;;7.81;62.76;97165.63;1693988;84;20965;-76
2021/03/14 07:04:54;;;;;;;4.30;3.87;;;;;;;7.80;62.94;97163.92;1700365;84;20953;-74
2021/03/14 07:07:32;;;;;;;4.30;3.90;;;;;;;7.80;63.01;97161.25;1694476;84;20965;-75
2021/03/14 07:10:07;;;;;;;5.20;4.70;;;;;;;7.83;62.98;97165.02;1701134;84;20937;-75
2021/03/14 07:12:43;;;;;;;5.03;4.55;;;;;;;7.84;63.11;97164.55;1699352;84;21377;-77
2021/03/14 07:15:19;;;;;;;8.95;5.62;;;;;;;7.83;63.10;97155.66;1699328;84;21490;-78
2021/03/14 07:17:55;;;;;;;6.03;5.42;;;;;;;7.85;63.03;97137.70;1698888;84;21577;-78
2021/03/14 07:20:30;;;;;;;6.90;5.55;;;;;;;7.87;63.07;97142.44;1693172;84;21004;-78
2021/03/14 07:23:08;;;;;;;6.17;5.58;;;;;;;7.88;63.13;97133.45;1698811;84;20954;-77
2021/03/14 07:25:42;;;;;;;7.47;6.72;;;;;;;7.91;63.38;97127.84;1698711;84;21450;-77
2021/03/14 07:28:12;;;;;;;9.35;7.33;;;;;;;7.96;63.25;97130.15;1698647;84;20965;-77
2021/03/14 07:30:40;;;;;;;10.00;6.08;;;;;;;8.00;63.16;97136.13;1698605;84;20977;-79
2021/03/14 07:33:07;;;;;;;7.72;5.70;;;;;;;8.05;63.16;97137.94;1678317;84;21580;-78
2021/03/14 07:35:37;;;;;;;6.78;4.65;;;;;;;8.11;63.11;97126.76;1698776;84;21433;-79
2021/03/14 07:38:04;;;;;;;6.17;5.55;;;;;;;8.17;63.03;97123.59;1697980;84;21260;-78
2021/03/14 07:40:32;;;;;;;7.05;5.97;;;;;;;8.24;62.81;97114.59;1696545;84;21021;-79
2021/03/14 07:43:03;;;;;;;9.65;6.08;;;;;;;8.30;62.68;97114.94;1696303;84;20970;-78
2021/03/14 07:45:33;;;;;;;5.50;5.00;;;;;;;8.37;62.46;97104.61;1696567;84;20937;-76
2021/03/14 07:48:02;;;;;;;6.20;5.15;;;;;;;8.47;62.49;97100.23;1696238;84;21471;-78
2021/03/14 07:50:41;;;;;;;7.90;5.95;;;;;;;8.59;62.25;97091.70;1696548;84;21812;-78
2021/03/14 07:53:11;;;;;;;7.22;5.87;;;;;;;8.70;61.76;97088.61;1696493;84;20953;-78
2021/03/14 07:55:40;;;;;;;11.90;7.30;;;;;;;8.82;61.27;97099.64;1696448;84;20949;-77
2021/03/14 07:58:13;;;;;;;8.45;6.58;;;;;;;8.91;60.87;97090.85;1696155;84;21478;-80
2021/03/14 08:00:43;;;;;;;7.22;5.40;;;;;;;9.00;60.82;97107.49;1696375;84;20930;-77
2021/03/14 08:03:10;;;;;;;6.72;6.10;;;;;;;9.07;60.36;97104.30;1696501;84;21730;-78
2021/03/14 08:05:47;;;;;;;6.30;5.65;;;;;;;9.14;60.14;97088.06;1696509;84;21435;-80
2021/03/14 08:08:34;;;;;;;6.95;6.33;;;;;;;9.18;59.82;97080.13;1696239;84;21135;-78
2021/03/14 08:11:02;;;;;;;9.95;5.67;;;;;;;9.22;59.98;97076.20;1696329;84;20945;-79
2021/03/14 08:13:40;;;;;;;8.65;5.70;;;;;;;9.25;59.80;97078.62;1696450;84;20941;-79
2021/03/14 08:16:15;;;;;;;5.70;4.87;;;;;;;9.29;59.69;97088.11;1676319;84;21127;-79
2021/03/14 08:18:49;;;;;;;7.45;5.78;;;;;;;9.30;59.71;97081.78;1689520;84;21072;-80
2021/03/14 08:21:29;;;;;;;5.97;5.25;;;;;;;9.31;59.36;97078.09;1694329;84;21050;-81
2021/03/14 08:23:59;;;;;;;5.40;4.55;;;;;;;9.37;59.48;97075.39;1693638;84;20905;-79
2021/03/14 08:26:32;;;;;;;5.28;4.87;;;;;;;9.45;59.65;97089.48;1696477;84;21001;-80
2021/03/14 08:29:12;;;;;;;5.17;4.65;;;;;;;9.58;59.08;97084.75;1696601;84;22276;-81
2021/03/14 08:31:47;;;;;;;4.70;4.30;;;;;;;9.78;58.18;97083.53;1696257;84;20989;-80
2021/03/14 08:34:24;;;;;;;4.90;4.40;;;;;;;10.02;57.39;97076.50;1696380;84;20961;-78
2021/03/14 08:36:54;;;;;;;4.05;3.65;;;;;;;10.30;56.72;97077.58;1676983;84;20950;-80
2021/03/14 08:39:37;;;;;;;;;;;;;;;10.58;55.44;97085.84;1698345;83;21012;-78
2021/03/14 08:42:16;;;;;;;4.47;4.08;;;;;;;10.85;55.03;97086.53;1676642;84;21389;-80
2021/03/14 08:44:47;;;;;;;4.35;3.95;;;;;;;11.03;54.27;97098.77;1695953;84;20973;-81
2021/03/14 08:47:26;;;;;;;6.30;4.15;;;;;;;11.16;53.87;97107.41;1695972;84;20938;-81
2021/03/14 08:50:02;;;;;;;4.83;4.33;;;;;;;11.20;53.39;97111.48;1695656;84;20953;-79
2021/03/14 08:52:35;;;;;;;5.05;4.65;;;;;;;11.17;52.06;97117.14;1695548;84;21470;-80
2021/03/14 08:55:10;;;;;;;5.62;5.12;;;;;;;11.13;52.63;97113.06;1695683;84;21201;-80
2021/03/14 08:57:38;;;;;;;4.97;4.58;;;;;;;11.06;52.55;97109.23;1696449;84;21013;-81
2021/03/14 09:00:14;;;;;;;5.97;5.20;;;;;;;11.00;52.85;97115.16;1696488;84;21438;-79
2021/03/14 09:02:45;;;;;;;5.35;4.83;;;;;;;10.93;52.67;97112.70;1676587;84;21112;-79
2021/03/14 09:05:19;;;;;;;5.53;5.03;;;;;;;10.87;52.91;97124.00;1697348;84;21032;-79
2021/03/14 09:07:59;;;;;;;5.03;4.62;;;;;;;10.79;53.09;97118.82;1676056;84;21119;-80
2021/03/14 09:10:35;;;;;;;6.08;5.47;;;;;;;10.73;53.38;97105.95;1696367;84;20965;-80
2021/03/14 09:13:13;;;;;;;6.20;4.80;;;;;;;10.68;53.49;97110.89;1690351;83;20961;-80
2021/03/14 09:15:49;;;;;;;5.95;5.45;;;;;;;10.63;53.33;97111.81;1694660;84;20954;-79
2021/03/14 09:18:27;;;;;;;11.63;5.83;;;;;;;10.58;53.84;97112.69;1694316;84;20945;-79
2021/03/14 09:21:01;;;;;;;6.28;5.67;;;;;;;10.56;53.93;97107.46;1693985;84;21399;-79
2021/03/14 09:23:42;;;;;;;6.37;5.72;;;;;;;10.51;53.87;97108.88;1694317;84;21006;-79
2021/03/14 09:26:13;;;;;;;6.80;6.08;;;;;;;10.53;53.57;97110.92;1693967;84;20965;-80
2021/03/14 09:28:45;;;;;;;6.12;5.53;;;;;;;10.56;53.68;97107.97;1694952;84;20970;-80
2021/03/14 09:31:15;;;;;;;7.03;5.62;;;;;;;10.68;53.89;97114.08;1695209;84;21088;-81
2021/03/14 09:33:47;;;;;;;6.40;5.12;;;;;;;10.84;52.99;97104.47;1693320;84;21381;-81
2021/03/14 09:36:20;;;;;;;5.50;5.08;;;;;;;11.02;54.19;97114.05;1693924;84;20985;-80
2021/03/14 09:39:00;;;;;;;4.72;4.33;;;;;;;11.21;52.23;97107.82;1674371;84;20949;-80
2021/03/14 09:41:44;;;;;;;5.25;4.35;;;;;;;11.37;52.54;97105.06;1678180;84;21471;-81
2021/03/14 09:44:16;;;;;;;4.30;3.90;;;;;;;11.51;51.36;97108.64;1693105;84;20962;-80
2021/03/14 09:47:00;;;;;;;5.05;4.55;;;;;;;11.64;51.52;97111.02;1674474;84;39266;-81
2021/03/14 09:49:41;;;;;;;6.00;4.17;;;;;;;11.74;51.43;97105.61;1677484;84;20993;-81
2021/03/14 09:52:12;;;;;;;4.65;4.03;;;;;;;11.86;51.04;97109.83;1694160;84;20961;-81
2021/03/14 09:54:39;;;;;;;5.12;4.55;;;;;;;11.99;50.55;97114.08;1694130;84;20934;-79
2021/03/14 09:57:08;;;;;;;6.03;4.78;;;;;;;12.05;49.94;97105.42;1694241;84;21001;-82
2021/03/14 09:59:58;;;;;;;5.83;5.25;;;;;;;12.09;49.86;97106.33;1842393;78;23504;-81
2021/03/14 10:02:35;;;;;;;4.90;4.53;;;;;;;12.07;49.75;97103.42;1812351;79;21026;-82
2021/03/14 10:05:09;;;;;;;5.55;5.05;;;;;;;12.05;49.67;97109.46;1784004;79;21435;-80
2021/03/14 10:07:38;;;;;;;6.87;5.45;;;;;;;11.99;49.99;97111.39;1817596;79;20928;-80
2021/03/14 10:10:11;;;;;;;5.65;5.17;;;;;;;11.96;50.17;97115.72;1817817;79;21003;-81
2021/03/14 10:12:45;;;;;;;6.00;4.70;;;;;;;11.88;50.20;97123.98;1816783;79;21007;-81
2021/03/14 10:15:17;;;;;;;6.25;5.15;;;;;;;11.87;50.55;97121.43;1783825;79;20947;-85
2021/03/14 10:17:46;;;;;;;6.72;6.05;;;;;;;11.81;50.40;97117.50;1817719;79;21183;-80
2021/03/14 10:20:21;;;;;;;7.17;6.47;;;;;;;11.74;50.74;97124.44;1817582;79;20944;-81
2021/03/14 10:23:03;;;;;;;7.37;6.67;;;;;;;11.63;50.72;97125.95;1786139;79;21023;-81
2021/03/14 10:25:39;;;;;;;7.35;6.55;;;;;;;11.56;51.47;97130.56;1786302;79;20952;-80
2021/03/14 10:28:23;;;;;;;11.45;8.40;;;;;;;11.45;51.61;97128.55;1815642;79;21345;-80
2021/03/14 10:31:01;;;;;;;10.20;9.25;;;;;;;11.35;51.73;97126.70;1815605;79;21253;-80
2021/03/14 10:33:36;;;;;;;9.50;8.60;;;;;;;11.26;51.94;97122.66;1817561;79;20939;-80
2021/03/14 10:36:11;;;;;;;11.75;8.68;;;;;;;11.16;52.02;97124.00;1817536;79;20955;-81
2021/03/14 10:38:50;;;;;;;8.78;7.83;;;;;;;11.09;52.35;97133.64;1817596;79;21051;-80
2021/03/14 10:41:23;;;;;;;8.75;7.50;;;;;;;11.00;52.66;97138.00;1816336;79;20967;-80
2021/03/14 10:44:00;;;;;;;10.65;9.58;;;;;;;10.89;52.78;97136.28;1816222;79;21852;-79
2021/03/14 10:46:38;;;;;;;8.83;7.90;;;;;;;10.76;53.58;97140.58;1817700;79;20928;-78
2021/03/14 10:49:08;;;;;;;9.78;8.88;;;;;;;10.69;53.98;97142.14;1782300;79;20935;-78
2021/03/14 10:51:41;;;;;;;9.60;8.60;;;;;;;10.61;54.05;97143.30;1817489;79;21051;-78
2021/03/14 10:54:13;;;;;;;10.72;8.68;;;;;;;10.54;54.28;97145.69;1817264;79;21456;-80
2021/03/14 10:56:47;;;;;;;10.30;9.30;;;;;;;10.47;54.63;97149.42;1758934;79;21429;-78
2021/03/14 10:59:30;;;;;;;10.28;9.15;;;;;;;10.40;54.99;97148.76;1782101;79;20987;-79
2021/03/14 11:02:25;;;;;;;11.12;9.03;;;;;;;10.31;55.34;97144.53;1815822;79;20936;-80
2021/03/14 11:05:00;;;;;;;8.25;7.05;;;;;;;10.24;55.47;97138.50;1817256;79;21492;-79
2021/03/14 11:07:37;;;;;;;9.85;8.80;;;;;;;10.17;56.13;97144.03;1817361;79;20929;-78
2021/03/14 11:10:15;;;;;;;13.68;9.98;;;;;;;10.10;56.55;97145.91;1815545;79;22524;-79
2021/03/14 11:12:50;;;;;;;11.28;10.05;;;;;;;10.05;56.98;97145.97;1816785;78;20896;-81
2021/03/14 11:15:33;;;;;;;19.40;10.35;;;;;;;10.01;57.79;97150.77;1816926;79;21050;-80
2021/03/14 11:18:05;;;;;;;9.63;8.58;;;;;;;9.99;57.95;97150.53;1816281;79;20928;-79
2021/03/14 11:20:36;;;;;;;10.55;9.50;;;;;;;9.94;58.29;97149.59;1814377;79;20959;-79
2021/03/14 11:23:13;;;;;;;11.95;10.40;;;;;;;9.91;58.30;97145.83;1816447;79;21422;-79
2021/03/14 11:25:41;;;;;;;13.00;9.73;;;;;;;9.88;58.57;97160.84;1816869;79;21437;-80
2021/03/14 11:28:09;;;;;;;11.80;10.10;;;;;;;9.87;59.19;97160.47;1783079;79;20912;-80
2021/03/14 11:30:38;;;;;;;11.40;10.23;;;;;;;9.85;59.22;97159.77;1816649;78;21058;-79
2021/03/14 11:33:09;;;;;;;13.83;10.90;;;;;;;9.82;59.34;97164.05;1783326;79;20885;-82
2021/03/14 11:35:42;;;;;;;11.63;10.40;;;;;;;9.81;59.43;97165.05;1815206;79;21536;-82
2021/03/14 11:38:14;;;;;;;13.20;10.45;;;;;;;9.79;59.50;97162.50;1815295;79;20971;-81
2021/03/14 11:40:54;;;;;;;12.30;11.00;;;;;;;9.75;59.59;97172.62;1816023;79;20920;-81
2021/03/14 11:43:25;;;;;;;12.07;10.28;;;;;;;9.72;59.90;97167.52;1815171;79;20988;-80
2021/03/14 11:45:59;;;;;;;10.15;9.15;;;;;;;9.69;60.23;97163.75;1814766;79;21330;-80
2021/03/14 11:48:28;;;;;;;10.58;9.40;;;;;;;9.67;60.11;97170.25;1817106;79;21630;-79
2021/03/14 11:51:05;;;;;;;11.93;10.72;;;;;;;9.62;60.41;97177.34;1815211;79;21019;-79
2021/03/14 11:53:36;;;;;;;14.95;11.75;;;;;;;9.55;60.69;97174.81;1817056;79;20979;-81
2021/03/14 11:56:06;;;;;;;12.73;11.48;;;;;;;9.52;60.92;97183.11;1816941;79;20904;-80
2021/03/14 11:58:36;;;;;;;13.13;10.95;;;;;;;9.47;61.38;97182.66;1812926;79;20928;-79
2021/03/14 12:01:06;;;;;;;14.33;12.35;;;;;;;9.42;61.61;97183.54;1783347;79;21206;-80